Time;durP1;ratioP1;P1;durP2;ratioP2;P2;SDS_P1;SDS_P2;PMS_P1;PMS_P2;Temp;Humidity;BMP_temperature;BMP_pressure;BME280_temperature;BME280_humidity;BME280_pressure;Samples;Min_cycle;Max_cycle;Signal;HPM_P1;HPM_P2
2023/11/28 05:30:06;;;;;;;0.10;0.10;;;6.90;83.60;;;;;;6137086;23;20106;31
2023/11/28 05:32:31;;;;;;;0.10;0.10;;;6.90;83.50;;;;;;4987312;28;20085;-81
2023/11/28 05:34:58;;;;;;;0.10;0.10;;;6.80;83.30;;;;;;4998364;28;20055;-82
2023/11/28 05:37:24;;;;;;;0.10;0.10;;;6.80;83.50;;;;;;4999068;28;20057;-83
2023/11/28 05:39:50;;;;;;;0.10;0.10;;;6.80;83.40;;;;;;4979927;28;20430;-83
2023/11/28 05:42:15;;;;;;;0.10;0.10;;;6.80;83.60;;;;;;5000346;28;20080;-82
2023/11/28 05:44:41;;;;;;;0.10;0.10;;;6.80;83.70;;;;;;4999061;28;20104;-83
2023/11/28 05:47:06;;;;;;;0.10;0.10;;;6.80;83.70;;;;;;5000209;28;20022;-83
2023/11/28 05:49:32;;;;;;;0.10;0.10;;;6.80;83.90;;;;;;4982747;28;20030;-83
2023/11/28 05:51:57;;;;;;;0.10;0.10;;;6.70;83.70;;;;;;4998871;28;20120;-83
2023/11/28 05:54:24;;;;;;;0.10;0.10;;;6.80;83.80;;;;;;4981756;28;20018;-81
2023/11/28 05:56:49;;;;;;;0.10;0.10;;;6.70;83.90;;;;;;4999940;28;20021;-81
2023/11/28 05:59:15;;;;;;;0.10;0.10;;;6.70;83.90;;;;;;4999063;28;20026;-76
2023/11/28 06:02:02;;;;;;;0.10;0.10;;;6.70;83.90;;;;;;4997460;28;20022;-75
2023/11/28 06:04:31;;;;;;;0.10;0.10;;;6.70;83.80;;;;;;4998650;28;20040;-76
2023/11/28 06:06:57;;;;;;;0.10;0.10;;;6.70;83.60;;;;;;5000275;28;20030;-75
2023/11/28 06:09:24;;;;;;;0.15;0.15;;;6.70;83.80;;;;;;4981929;28;20440;-75
2023/11/28 06:11:53;;;;;;;0.10;0.10;;;6.70;83.90;;;;;;4981818;28;20042;-75
2023/11/28 06:14:22;;;;;;;0.10;0.10;;;6.70;83.60;;;;;;4999471;28;20029;-76
2023/11/28 06:16:48;;;;;;;0.10;0.10;;;6.80;83.50;;;;;;4982386;28;20022;-76
2023/11/28 06:19:15;;;;;;;0.10;0.10;;;6.80;84.00;;;;;;4998075;28;20026;-76
2023/11/28 06:21:41;;;;;;;0.10;0.10;;;6.90;83.90;;;;;;4998341;28;20109;-77
2023/11/28 06:24:07;;;;;;;0.10;0.10;;;7.00;83.90;;;;;;4998798;28;20108;-76
2023/11/28 06:26:33;;;;;;;0.10;0.10;;;7.00;84.00;;;;;;4999182;28;20015;-75
2023/11/28 06:28:59;;;;;;;0.10;0.10;;;7.00;83.90;;;;;;4995737;28;20118;-76
2023/11/28 06:31:25;;;;;;;0.20;0.20;;;7.00;83.90;;;;;;4997388;28;20093;-76
2023/11/28 06:33:50;;;;;;;0.10;0.10;;;7.00;84.00;;;;;;4997998;28;20494;-76
2023/11/28 06:36:18;;;;;;;0.10;0.10;;;7.00;83.80;;;;;;4998105;28;20564;-75
2023/11/28 06:38:44;;;;;;;0.10;0.10;;;6.90;83.70;;;;;;4981820;28;20113;-76
2023/11/28 06:41:10;;;;;;;0.10;0.10;;;6.90;83.80;;;;;;4997957;28;20053;-76
2023/11/28 06:43:36;;;;;;;0.10;0.10;;;6.80;84.00;;;;;;4997274;28;20089;-78
2023/11/28 06:46:02;;;;;;;0.10;0.10;;;6.80;84.10;;;;;;4996049;28;20398;-76
2023/11/28 06:48:27;;;;;;;0.17;0.17;;;6.70;84.00;;;;;;4997663;28;20031;-76
2023/11/28 06:50:56;;;;;;;0.10;0.10;;;6.70;84.00;;;;;;4998383;28;20052;-76
2023/11/28 06:53:22;;;;;;;0.10;0.10;;;6.70;84.00;;;;;;4998524;28;20496;-76
2023/11/28 06:55:48;;;;;;;0.10;0.10;;;6.60;83.60;;;;;;4972417;28;20037;-76
2023/11/28 06:58:13;;;;;;;0.10;0.10;;;6.50;83.90;;;;;;4979694;28;20034;-77
2023/11/28 07:00:39;;;;;;;0.10;0.10;;;6.50;84.10;;;;;;4979526;28;20019;-76
2023/11/28 07:03:06;;;;;;;0.10;0.10;;;6.50;83.60;;;;;;4988870;28;20070;-76
2023/11/28 07:05:32;;;;;;;0.10;0.10;;;6.50;84.00;;;;;;4998515;28;20034;-76
2023/11/28 07:07:57;;;;;;;0.10;0.10;;;6.30;83.80;;;;;;4998820;28;20109;-76
2023/11/28 07:10:23;;;;;;;0.10;0.10;;;6.30;84.00;;;;;;4978048;28;20581;-76
2023/11/28 07:12:49;;;;;;;0.10;0.10;;;6.30;83.50;;;;;;4985804;28;20517;-76
2023/11/28 07:15:15;;;;;;;0.10;0.10;;;6.20;83.70;;;;;;4981375;28;20029;-76
2023/11/28 07:17:41;;;;;;;0.10;0.10;;;6.10;84.10;;;;;;4981286;28;20410;-76
2023/11/28 07:20:07;;;;;;;0.10;0.10;;;6.20;84.00;;;;;;4997451;28;20035;-76
2023/11/28 07:22:33;;;;;;;0.10;0.10;;;6.20;84.00;;;;;;4998940;28;20041;-76
2023/11/28 07:24:59;;;;;;;0.10;0.10;;;6.20;84.20;;;;;;4998629;28;20101;-76
2023/11/28 07:27:24;;;;;;;0.10;0.10;;;6.20;84.20;;;;;;4997674;28;20193;-76
2023/11/28 07:29:50;;;;;;;0.10;0.10;;;6.20;84.10;;;;;;4998824;28;20150;-76
2023/11/28 07:32:16;;;;;;;0.10;0.10;;;6.20;84.10;;;;;;4998671;28;20046;-76
2023/11/28 07:34:42;;;;;;;0.10;0.10;;;6.20;83.90;;;;;;4997038;28;20030;-77
2023/11/28 07:37:07;;;;;;;0.10;0.10;;;6.20;83.90;;;;;;4998655;28;20073;-76
2023/11/28 07:39:33;;;;;;;0.10;0.10;;;6.10;83.90;;;;;;4998101;28;20035;-76
2023/11/28 07:41:59;;;;;;;0.20;0.20;;;6.10;83.70;;;;;;4997314;28;20033;-76
2023/11/28 07:44:24;;;;;;;0.20;0.20;;;6.10;84.10;;;;;;4998256;28;20033;-76
2023/11/28 07:46:50;;;;;;;0.10;0.10;;;6.20;84.10;;;;;;4998430;28;20452;-76
2023/11/28 07:49:16;;;;;;;0.10;0.10;;;6.20;84.20;;;;;;4996951;28;20045;-76
2023/11/28 07:51:41;;;;;;;0.15;0.10;;;6.30;84.20;;;;;;4980197;28;20081;-76
2023/11/28 07:54:07;;;;;;;0.17;0.10;;;6.40;84.30;;;;;;4998215;28;20022;-76
2023/11/28 07:56:33;;;;;;;0.10;0.10;;;6.50;84.30;;;;;;4980788;28;20026;-76
2023/11/28 07:58:59;;;;;;;0.10;0.10;;;6.60;84.20;;;;;;4996922;28;20058;-76
2023/11/28 08:01:24;;;;;;;0.10;0.10;;;6.60;84.10;;;;;;4998207;28;20440;-76
2023/11/28 08:03:50;;;;;;;0.10;0.10;;;6.50;84.00;;;;;;4997830;28;20041;-76
2023/11/28 08:06:18;;;;;;;0.10;0.10;;;6.60;84.00;;;;;;4998116;28;20030;-76
2023/11/28 08:08:45;;;;;;;0.10;0.10;;;6.50;83.90;;;;;;4996652;28;20034;-76
2023/11/28 08:11:10;;;;;;;0.20;0.20;;;6.50;83.70;;;;;;5016999;28;20145;-77
2023/11/28 08:13:36;;;;;;;0.10;0.10;;;6.60;83.90;;;;;;5017191;28;20062;-76
2023/11/28 08:16:03;;;;;;;0.10;0.10;;;6.70;83.90;;;;;;5014678;28;20029;-76
2023/11/28 08:18:28;;;;;;;0.10;0.10;;;6.70;84.10;;;;;;4997647;28;20501;-76
2023/11/28 08:20:54;;;;;;;0.10;0.10;;;6.70;83.90;;;;;;4996220;28;20026;-77
2023/11/28 08:23:22;;;;;;;0.10;0.10;;;6.70;84.00;;;;;;4997304;28;20026;-76
2023/11/28 08:25:48;;;;;;;0.10;0.10;;;6.70;84.10;;;;;;4996678;28;20126;-76
2023/11/28 08:28:14;;;;;;;0.20;0.10;;;6.60;84.20;;;;;;4997394;28;20018;-76
2023/11/28 08:30:39;;;;;;;0.10;0.10;;;6.70;84.20;;;;;;4996341;28;20066;-76
2023/11/28 08:33:05;;;;;;;0.10;0.10;;;6.60;84.20;;;;;;4997613;28;20034;-76
2023/11/28 08:35:30;;;;;;;0.10;0.10;;;6.70;84.60;;;;;;4975644;28;20027;-77
2023/11/28 08:37:56;;;;;;;0.10;0.10;;;6.70;84.60;;;;;;4978228;28;20049;-76
2023/11/28 08:40:22;;;;;;;0.10;0.10;;;6.70;84.70;;;;;;4967540;28;20109;-77
2023/11/28 08:42:47;;;;;;;0.10;0.10;;;6.70;84.70;;;;;;4996390;28;20065;-76
2023/11/28 08:45:13;;;;;;;0.10;0.10;;;6.70;84.60;;;;;;4997535;28;20186;-76
2023/11/28 08:47:39;;;;;;;0.10;0.10;;;6.70;84.60;;;;;;4997359;28;20034;-76
2023/11/28 08:50:06;;;;;;;0.10;0.10;;;6.70;84.80;;;;;;4996113;28;20110;-76
2023/11/28 08:52:32;;;;;;;0.20;0.13;;;6.80;84.90;;;;;;4979868;28;20027;-76
2023/11/28 08:55:00;;;;;;;0.10;0.10;;;6.80;84.90;;;;;;4997350;28;20022;-76
2023/11/28 08:57:33;;;;;;;0.10;0.10;;;6.90;84.90;;;;;;4996482;28;20035;-76
2023/11/28 09:00:04;;;;;;;0.10;0.10;;;6.90;85.00;;;;;;4979673;28;20027;-76
2023/11/28 09:02:30;;;;;;;0.10;0.10;;;7.10;85.00;;;;;;4997356;28;20084;-76
2023/11/28 09:04:56;;;;;;;0.10;0.10;;;7.20;85.10;;;;;;4995810;28;20026;-76
2023/11/28 09:07:22;;;;;;;3.63;3.42;;;7.30;84.80;;;;;;4996904;28;20059;-76
2023/11/28 09:09:47;;;;;;;0.30;0.30;;;7.60;84.40;;;;;;4987581;28;20033;-76
2023/11/28 09:12:15;;;;;;;1.50;1.40;;;7.70;84.20;;;;;;4997972;28;20035;-77
2023/11/28 09:14:41;;;;;;;0.85;0.85;;;7.90;84.00;;;;;;4960498;28;20023;-76
2023/11/28 09:17:07;;;;;;;0.10;0.10;;;8.00;83.70;;;;;;4974498;28;20109;-76
2023/11/28 09:19:32;;;;;;;2.53;2.38;;;8.00;83.90;;;;;;4977521;28;20380;-76
2023/11/28 09:22:01;;;;;;;0.10;0.10;;;8.10;83.70;;;;;;4960422;28;20065;-76
2023/11/28 09:24:27;;;;;;;0.10;0.10;;;8.00;83.80;;;;;;4960109;28;20383;-76
2023/11/28 09:26:52;;;;;;;0.10;0.10;;;8.00;83.90;;;;;;4983795;28;20041;-77
2023/11/28 09:29:22;;;;;;;0.10;0.10;;;8.00;83.90;;;;;;4996876;28;20038;-76
2023/11/28 09:31:48;;;;;;;0.10;0.10;;;8.10;83.90;;;;;;4996840;28;20061;-76
2023/11/28 09:34:13;;;;;;;0.10;0.10;;;8.10;83.90;;;;;;4997233;28;20025;-76
2023/11/28 09:36:39;;;;;;;0.10;0.10;;;8.10;84.10;;;;;;4978781;28;20031;-77
2023/11/28 09:39:05;;;;;;;0.10;0.10;;;8.20;84.00;;;;;;4981193;28;20023;-76
2023/11/28 09:41:35;;;;;;;0.13;0.13;;;8.20;84.00;;;;;;4982969;28;20033;-76
2023/11/28 09:44:01;;;;;;;0.10;0.10;;;8.30;83.70;;;;;;5000595;28;20026;-77
2023/11/28 09:46:30;;;;;;;0.10;0.10;;;8.30;83.50;;;;;;4999146;28;20497;-77
2023/11/28 09:48:58;;;;;;;0.10;0.10;;;8.40;83.90;;;;;;4983181;28;20045;-77
2023/11/28 09:51:29;;;;;;;0.10;0.10;;;8.40;83.60;;;;;;4981458;28;20045;-76
2023/11/28 09:53:59;;;;;;;0.10;0.10;;;8.50;83.70;;;;;;4982894;28;20478;-76
2023/11/28 09:56:25;;;;;;;0.10;0.10;;;8.50;83.90;;;;;;4999252;28;20042;-77
2023/11/28 09:58:58;;;;;;;0.10;0.10;;;8.60;83.80;;;;;;5000339;28;20073;-76
2023/11/28 10:01:25;;;;;;;0.10;0.10;;;8.60;83.80;;;;;;4999555;28;20488;-76
2023/11/28 10:03:51;;;;;;;0.10;0.10;;;8.70;83.70;;;;;;4982796;28;20112;-76
2023/11/28 10:06:21;;;;;;;0.10;0.10;;;8.70;83.40;;;;;;4998872;28;20097;-76
2023/11/28 10:08:50;;;;;;;0.10;0.10;;;8.80;83.20;;;;;;5000140;28;20034;-77
2023/11/28 10:11:17;;;;;;;0.10;0.10;;;8.80;83.20;;;;;;4980871;28;20506;-76
2023/11/28 10:13:46;;;;;;;0.10;0.10;;;8.90;83.10;;;;;;4980478;28;20051;-77
2023/11/28 10:16:16;;;;;;;0.10;0.10;;;8.90;82.80;;;;;;4986941;28;20116;-76
2023/11/28 10:18:47;;;;;;;0.10;0.10;;;9.00;82.40;;;;;;4981544;28;20393;-76
2023/11/28 10:21:14;;;;;;;0.10;0.10;;;9.00;82.40;;;;;;4998582;28;20074;-76
2023/11/28 10:23:47;;;;;;;0.10;0.10;;;9.10;82.30;;;;;;4998672;28;20046;-76
2023/11/28 10:26:13;;;;;;;0.10;0.10;;;9.10;82.10;;;;;;4998696;28;20038;-76
2023/11/28 10:28:38;;;;;;;0.10;0.10;;;9.20;82.30;;;;;;4999237;28;20109;-76
2023/11/28 10:31:07;;;;;;;0.10;0.10;;;9.20;82.40;;;;;;4998267;28;20081;-76
2023/11/28 10:33:33;;;;;;;0.10;0.10;;;9.20;81.90;;;;;;4998506;28;20091;-76
2023/11/28 10:35:59;;;;;;;0.10;0.10;;;9.20;81.60;;;;;;4999550;28;20482;-77
2023/11/28 10:38:26;;;;;;;0.10;0.10;;;9.30;80.80;;;;;;4999583;28;20046;-77
2023/11/28 10:40:53;;;;;;;0.10;0.10;;;9.30;81.00;;;;;;4977915;28;20031;-76
2023/11/28 10:43:19;;;;;;;0.10;0.10;;;9.40;80.60;;;;;;4978900;28;20026;-77
2023/11/28 10:45:46;;;;;;;0.10;0.10;;;9.40;79.90;;;;;;4962116;28;20031;-76
2023/11/28 10:48:12;;;;;;;0.10;0.10;;;9.50;79.90;;;;;;4991182;28;20129;-77
2023/11/28 10:50:37;;;;;;;0.10;0.10;;;9.50;80.10;;;;;;4999178;28;20034;-77
2023/11/28 10:53:04;;;;;;;0.10;0.10;;;9.60;79.90;;;;;;4999387;28;20030;-76
2023/11/28 10:55:40;;;;;;;0.10;0.10;;;9.60;79.50;;;;;;4998302;28;20026;-76
2023/11/28 10:58:10;;;;;;;0.10;0.10;;;9.70;79.70;;;;;;4981726;28;20034;-76
2023/11/28 11:00:38;;;;;;;0.10;0.10;;;9.70;79.20;;;;;;4980921;28;20034;-77
2023/11/28 11:03:04;;;;;;;0.10;0.10;;;9.70;79.30;;;;;;4999129;28;20037;-77
2023/11/28 11:05:31;;;;;;;0.10;0.10;;;9.70;79.10;;;;;;4979474;28;20034;-77
2023/11/28 11:07:58;;;;;;;0.10;0.10;;;9.80;79.20;;;;;;4969481;28;20023;-77
2023/11/28 11:10:25;;;;;;;0.10;0.10;;;9.90;78.00;;;;;;4998839;28;20526;-77
2023/11/28 11:13:08;;;;;;;0.10;0.10;;;9.90;78.00;;;;;;4998923;28;20030;-77
2023/11/28 11:15:53;;;;;;;0.10;0.10;;;9.90;77.80;;;;;;4997770;28;20034;-77
2023/11/28 11:18:43;;;;;;;0.10;0.10;;;9.90;77.50;;;;;;4990848;28;20105;-77
2023/11/28 11:21:32;;;;;;;0.10;0.10;;;9.90;76.60;;;;;;4992138;28;20038;-77
2023/11/28 11:24:00;;;;;;;0.10;0.10;;;10.00;76.20;;;;;;4998844;28;20030;-77
2023/11/28 11:26:45;;;;;;;0.10;0.10;;;10.00;75.50;;;;;;4998978;28;20501;-77
2023/11/28 11:29:26;;;;;;;0.10;0.10;;;10.00;75.70;;;;;;4998892;28;20055;-76
2023/11/28 11:32:01;;;;;;;0.10;0.10;;;10.00;75.70;;;;;;4977488;28;20051;-77
2023/11/28 11:34:36;;;;;;;0.10;0.10;;;10.20;75.80;;;;;;4972970;28;20030;-77
2023/11/28 11:37:12;;;;;;;0.10;0.10;;;10.20;75.20;;;;;;4998402;28;20478;-77
2023/11/28 11:39:39;;;;;;;0.10;0.10;;;10.30;75.40;;;;;;4980384;28;20026;-76
2023/11/28 11:42:17;;;;;;;0.13;0.10;;;10.40;75.10;;;;;;4998159;28;20030;-76
2023/11/28 11:45:00;;;;;;;0.10;0.10;;;10.30;74.60;;;;;;4978768;28;20038;-77
2023/11/28 11:47:27;;;;;;;0.15;0.15;;;10.30;74.20;;;;;;4989864;28;20129;-76
2023/11/28 11:49:56;;;;;;;0.10;0.10;;;10.50;74.50;;;;;;4998186;28;20054;-77
2023/11/28 11:52:24;;;;;;;0.10;0.10;;;10.70;73.60;;;;;;4980415;28;20049;-77
2023/11/28 11:54:51;;;;;;;0.10;0.10;;;10.80;73.20;;;;;;4979932;28;20041;-77
2023/11/28 11:57:18;;;;;;;0.10;0.10;;;10.70;73.40;;;;;;4980045;28;20081;-77
2023/11/28 11:59:44;;;;;;;0.10;0.10;;;10.50;73.20;;;;;;4996925;28;20133;-76
2023/11/28 12:02:10;;;;;;;0.10;0.10;;;10.30;73.70;;;;;;4998184;28;20026;-76
2023/11/28 12:04:44;;;;;;;0.10;0.10;;;10.00;74.50;;;;;;4980308;28;20027;-76
2023/11/28 12:07:11;;;;;;;0.10;0.10;;;9.80;74.50;;;;;;4992269;28;20117;-77
2023/11/28 12:09:38;;;;;;;0.10;0.10;;;10.00;74.90;;;;;;4986651;28;20110;-77
2023/11/28 12:12:08;;;;;;;0.10;0.10;;;10.20;74.70;;;;;;4985395;28;20035;-76
2023/11/28 12:14:35;;;;;;;0.10;0.10;;;10.40;74.50;;;;;;4996846;28;20018;-76
2023/11/28 12:17:01;;;;;;;0.10;0.10;;;10.50;73.50;;;;;;4997413;28;20517;-77
2023/11/28 12:19:30;;;;;;;0.10;0.10;;;10.60;73.20;;;;;;4996702;28;20045;-76
2023/11/28 12:22:02;;;;;;;0.10;0.10;;;10.70;72.80;;;;;;4980629;28;20054;-76
2023/11/28 12:24:31;;;;;;;0.10;0.10;;;10.80;72.80;;;;;;4997724;28;20101;-77
2023/11/28 12:27:02;;;;;;;0.10;0.10;;;10.80;72.50;;;;;;4979756;28;20034;-76
2023/11/28 12:29:28;;;;;;;0.10;0.10;;;10.80;72.20;;;;;;4997629;28;20050;-76
2023/11/28 12:31:55;;;;;;;0.10;0.10;;;10.80;72.40;;;;;;4980304;28;20049;-77
2023/11/28 12:34:25;;;;;;;0.10;0.10;;;10.50;72.20;;;;;;4996729;28;20050;-77
2023/11/28 12:36:53;;;;;;;0.10;0.10;;;10.40;73.00;;;;;;4997304;28;20034;-76
2023/11/28 12:39:26;;;;;;;0.10;0.10;;;10.30;73.20;;;;;;4997602;28;20374;-76
2023/11/28 12:41:53;;;;;;;0.10;0.10;;;10.30;72.80;;;;;;4996357;28;20027;-76
2023/11/28 12:44:24;;;;;;;0.10;0.10;;;10.50;72.90;;;;;;4980135;28;20469;-76
2023/11/28 12:46:52;;;;;;;0.10;0.10;;;10.60;72.50;;;;;;4997480;28;20029;-77
2023/11/28 12:49:18;;;;;;;0.10;0.10;;;10.70;72.70;;;;;;4996369;28;20022;-77
2023/11/28 12:51:44;;;;;;;0.10;0.10;;;10.80;72.20;;;;;;4997336;28;20501;-76
2023/11/28 12:54:11;;;;;;;0.10;0.10;;;10.90;71.40;;;;;;4996460;28;20062;-76
2023/11/28 12:56:39;;;;;;;0.10;0.10;;;10.90;71.70;;;;;;4996210;28;20577;-77
2023/11/28 12:59:05;;;;;;;0.05;0.05;;;10.90;71.80;;;;;;4997314;28;20057;-77
2023/11/28 13:01:32;;;;;;;0.00;0.00;;;10.70;70.50;;;;;;4979789;28;20490;-77
2023/11/28 13:03:59;;;;;;;0.10;0.10;;;10.70;71.50;;;;;;4980225;28;20375;-77
2023/11/28 13:06:26;;;;;;;0.10;0.10;;;10.60;71.50;;;;;;4991351;28;20122;-77
2023/11/28 13:08:53;;;;;;;0.10;0.10;;;10.70;70.70;;;;;;4995290;28;20033;-76
2023/11/28 13:11:20;;;;;;;0.10;0.10;;;10.80;70.70;;;;;;5005227;28;20023;-77
2023/11/28 13:13:49;;;;;;;0.10;0.10;;;10.80;71.00;;;;;;5001125;28;20049;-77
2023/11/28 13:16:15;;;;;;;0.10;0.10;;;10.80;70.60;;;;;;5000332;28;20029;-77
2023/11/28 13:18:41;;;;;;;0.10;0.10;;;10.80;70.50;;;;;;5000620;28;20398;-77
2023/11/28 13:21:08;;;;;;;0.10;0.10;;;10.70;70.70;;;;;;4999655;28;20506;-76
2023/11/28 13:23:34;;;;;;;0.10;0.10;;;10.70;70.70;;;;;;4983717;28;20508;-76
2023/11/28 13:26:00;;;;;;;0.05;0.05;;;10.70;70.90;;;;;;5001057;28;20030;-77
2023/11/28 13:28:27;;;;;;;0.10;0.10;;;10.70;70.60;;;;;;5000970;28;20089;-77
2023/11/28 13:30:55;;;;;;;0.10;0.10;;;10.80;72.10;;;;;;4999585;28;20062;-77
2023/11/28 13:33:26;;;;;;;0.10;0.10;;;11.00;71.80;;;;;;4999603;28;20030;-76
2023/11/28 13:35:52;;;;;;;0.10;0.10;;;11.00;70.80;;;;;;5000734;28;20023;-76
2023/11/28 13:38:18;;;;;;;0.00;0.00;;;10.80;70.10;;;;;;5000800;28;20478;-77
2023/11/28 13:40:47;;;;;;;0.10;0.10;;;10.60;70.80;;;;;;4999873;28;20022;-77
2023/11/28 13:43:13;;;;;;;0.10;0.10;;;10.50;71.80;;;;;;4999432;28;20410;-77
2023/11/28 13:45:39;;;;;;;0.00;0.00;;;10.30;72.10;;;;;;5000592;28;20073;-76
2023/11/28 13:48:05;;;;;;;0.10;0.10;;;10.20;72.80;;;;;;4983088;28;20030;-76
2023/11/28 13:50:31;;;;;;;0.10;0.10;;;10.10;72.60;;;;;;4999308;28;20054;-77
2023/11/28 13:52:56;;;;;;;0.10;0.10;;;10.00;73.60;;;;;;4999340;28;20041;-76
2023/11/28 13:55:22;;;;;;;0.10;0.10;;;10.20;73.00;;;;;;4983148;28;20019;-76
2023/11/28 13:57:47;;;;;;;0.10;0.10;;;10.20;72.90;;;;;;4982085;28;20053;-76
2023/11/28 14:00:21;;;;;;;0.10;0.10;;;10.20;72.80;;;;;;5000257;28;20019;-76
2023/11/28 14:02:47;;;;;;;0.10;0.10;;;10.30;73.00;;;;;;4998981;28;20054;-76
2023/11/28 14:05:12;;;;;;;0.10;0.10;;;10.50;72.90;;;;;;4981526;28;20501;-76
2023/11/28 14:07:39;;;;;;;0.10;0.10;;;10.70;72.70;;;;;;4998899;28;20077;-76
2023/11/28 14:10:06;;;;;;;0.10;0.10;;;10.80;72.50;;;;;;5005286;28;20061;-76
2023/11/28 14:12:35;;;;;;;0.10;0.10;;;10.90;71.80;;;;;;4997838;28;20018;-76
2023/11/28 14:15:01;;;;;;;0.10;0.10;;;10.90;72.00;;;;;;4998974;28;20042;-76
2023/11/28 14:17:27;;;;;;;0.10;0.10;;;10.90;70.20;;;;;;4999692;28;20093;-76
2023/11/28 14:19:53;;;;;;;0.10;0.10;;;10.90;69.70;;;;;;4998428;28;20050;-76
2023/11/28 14:22:23;;;;;;;0.10;0.10;;;10.80;70.00;;;;;;4982651;28;20433;-77
2023/11/28 14:24:49;;;;;;;0.10;0.10;;;10.70;70.80;;;;;;4999822;28;20109;-76
2023/11/28 14:27:15;;;;;;;0.10;0.10;;;10.60;70.40;;;;;;4998356;28;20061;-76
2023/11/28 14:29:41;;;;;;;0.10;0.10;;;10.50;70.30;;;;;;4999640;28;20407;-76
2023/11/28 14:32:06;;;;;;;0.10;0.10;;;10.50;70.80;;;;;;4999680;28;20046;-76
2023/11/28 14:34:32;;;;;;;0.10;0.10;;;10.40;71.60;;;;;;4981238;28;20057;-76
2023/11/28 14:36:58;;;;;;;0.10;0.10;;;10.30;71.70;;;;;;4999604;28;20023;-76
2023/11/28 14:39:24;;;;;;;0.10;0.10;;;10.30;71.60;;;;;;4982143;28;20121;-76
2023/11/28 14:41:50;;;;;;;0.10;0.10;;;10.30;71.40;;;;;;4982375;28;20026;-77
2023/11/28 14:44:16;;;;;;;0.10;0.10;;;10.30;72.10;;;;;;4998290;28;20410;-77
2023/11/28 14:46:41;;;;;;;0.10;0.10;;;10.30;71.90;;;;;;4998405;28;20482;-77
2023/11/28 14:49:07;;;;;;;0.10;0.10;;;10.30;72.70;;;;;;4999553;28;20478;-76
2023/11/28 14:51:33;;;;;;;0.10;0.10;;;10.30;72.70;;;;;;4981830;28;20577;-77
2023/11/28 14:54:00;;;;;;;0.10;0.10;;;10.30;73.30;;;;;;4981691;28;20030;-76
2023/11/28 14:56:29;;;;;;;0.10;0.10;;;10.30;73.30;;;;;;4998259;28;20037;-76
2023/11/28 14:58:55;;;;;;;0.10;0.10;;;10.30;73.70;;;;;;4981742;28;20060;-77
2023/11/28 15:01:25;;;;;;;0.00;0.00;;;10.30;73.70;;;;;;4980209;28;20465;-76
2023/11/28 15:03:52;;;;;;;0.10;0.10;;;10.30;73.80;;;;;;4998863;28;20030;-76
2023/11/28 15:06:17;;;;;;;0.00;0.00;;;10.30;73.70;;;;;;4999123;28;20022;-76
2023/11/28 15:08:43;;;;;;;0.10;0.10;;;10.30;73.80;;;;;;4977136;28;20045;-76
2023/11/28 15:11:11;;;;;;;0.10;0.10;;;10.20;73.60;;;;;;5016779;28;20433;-76
2023/11/28 15:13:38;;;;;;;0.10;0.10;;;10.20;73.80;;;;;;4999229;28;20030;-76
2023/11/28 15:16:04;;;;;;;0.10;0.10;;;10.20;74.20;;;;;;4998814;28;20060;-76
2023/11/28 15:18:30;;;;;;;0.03;0.03;;;10.20;74.80;;;;;;4997646;28;20050;-77
2023/11/28 15:20:56;;;;;;;0.10;0.10;;;10.20;74.60;;;;;;4998790;28;20394;-77
2023/11/28 15:23:21;;;;;;;0.10;0.10;;;10.10;75.10;;;;;;4998803;28;20030;-76
2023/11/28 15:25:48;;;;;;;0.00;0.00;;;10.10;75.00;;;;;;4998720;28;20022;-76
2023/11/28 15:28:17;;;;;;;0.10;0.10;;;10.10;75.30;;;;;;4997860;28;20099;-77
2023/11/28 15:30:43;;;;;;;0.10;0.10;;;10.10;75.00;;;;;;4998519;28;20093;-76
2023/11/28 15:33:09;;;;;;;0.10;0.10;;;10.00;75.00;;;;;;4996344;28;20034;-76
2023/11/28 15:35:35;;;;;;;0.10;0.10;;;10.10;75.50;;;;;;4997106;28;20636;-76
2023/11/28 15:38:01;;;;;;;0.10;0.10;;;10.00;75.30;;;;;;4996199;28;20393;-77
2023/11/28 15:40:27;;;;;;;0.10;0.10;;;10.10;75.30;;;;;;4980732;28;20025;-77
2023/11/28 15:42:52;;;;;;;0.05;0.05;;;10.00;75.50;;;;;;4998560;28;20466;-76
2023/11/28 15:45:20;;;;;;;0.10;0.10;;;10.00;75.40;;;;;;4998321;28;20126;-76
2023/11/28 15:47:45;;;;;;;0.10;0.10;;;10.00;75.10;;;;;;4980481;28;20033;-76
2023/11/28 15:50:12;;;;;;;0.00;0.00;;;9.90;75.40;;;;;;4998145;28;20022;-76
2023/11/28 15:52:38;;;;;;;0.10;0.10;;;9.90;75.30;;;;;;4998254;28;20481;-76
2023/11/28 15:55:05;;;;;;;0.10;0.10;;;9.90;76.20;;;;;;4996965;28;20030;-76
2023/11/28 15:57:33;;;;;;;0.10;0.10;;;9.90;76.60;;;;;;4998220;28;20033;-77
2023/11/28 16:00:00;;;;;;;0.10;0.10;;;9.90;77.00;;;;;;4998156;28;20018;-76
2023/11/28 16:02:27;;;;;;;0.10;0.10;;;9.90;77.30;;;;;;4997984;28;20034;-77
2023/11/28 16:04:53;;;;;;;0.10;0.10;;;9.90;77.50;;;;;;4996331;28;20518;-76
2023/11/28 16:07:19;;;;;;;0.10;0.10;;;9.90;77.90;;;;;;4997974;28;20030;-76
2023/11/28 16:09:45;;;;;;;0.10;0.10;;;9.80;78.00;;;;;;4987746;28;20076;-76
2023/11/28 16:12:11;;;;;;;0.10;0.10;;;9.80;78.00;;;;;;5016331;28;20026;-76
2023/11/28 16:14:36;;;;;;;0.10;0.10;;;9.80;78.00;;;;;;4997364;28;20030;-76
2023/11/28 16:17:02;;;;;;;0.10;0.10;;;9.80;78.00;;;;;;4980500;28;20030;-76
2023/11/28 16:19:28;;;;;;;0.10;0.10;;;9.80;78.80;;;;;;4996467;28;20019;-77
2023/11/28 16:21:55;;;;;;;0.10;0.10;;;9.80;78.80;;;;;;4997822;28;20371;-76
2023/11/28 16:24:21;;;;;;;0.10;0.10;;;9.70;78.50;;;;;;4998104;28;20018;-76
2023/11/28 16:26:46;;;;;;;0.10;0.10;;;9.80;79.30;;;;;;4980293;28;20122;-76
2023/11/28 16:29:12;;;;;;;0.10;0.10;;;9.70;79.40;;;;;;4994757;28;20026;-77
2023/11/28 16:31:38;;;;;;;0.10;0.10;;;9.70;79.80;;;;;;4979770;28;20057;-76
2023/11/28 16:34:04;;;;;;;0.10;0.10;;;9.70;79.50;;;;;;4996056;28;20022;-77
2023/11/28 16:36:30;;;;;;;0.10;0.10;;;9.70;79.70;;;;;;4997502;28;20022;-77
2023/11/28 16:38:55;;;;;;;0.10;0.10;;;9.70;79.80;;;;;;4997561;28;20029;-77
2023/11/28 16:41:22;;;;;;;0.10;0.10;;;9.70;79.80;;;;;;4979047;28;20073;-76
2023/11/28 16:43:49;;;;;;;0.10;0.10;;;9.60;79.90;;;;;;4996030;28;20109;-76
2023/11/28 16:46:15;;;;;;;0.10;0.10;;;9.60;80.00;;;;;;4994895;28;20053;-77
2023/11/28 16:48:41;;;;;;;0.10;0.10;;;9.60;80.00;;;;;;4996557;28;20030;-77
2023/11/28 16:51:10;;;;;;;0.10;0.10;;;9.50;80.30;;;;;;4993758;28;20505;-76
2023/11/28 16:53:37;;;;;;;0.10;0.10;;;9.50;79.80;;;;;;4979214;28;20026;-77
2023/11/28 16:56:06;;;;;;;0.10;0.10;;;9.50;80.40;;;;;;4994669;28;20065;-76
2023/11/28 16:58:35;;;;;;;0.10;0.10;;;9.40;80.40;;;;;;4996243;28;20030;-76
2023/11/28 17:01:05;;;;;;;0.10;0.10;;;9.50;80.40;;;;;;4997118;28;20031;-77
2023/11/28 17:03:33;;;;;;;0.10;0.10;;;9.40;80.70;;;;;;4978587;28;20034;-78
2023/11/28 17:06:00;;;;;;;0.10;0.10;;;9.40;80.70;;;;;;4994032;28;20504;-77
2023/11/28 17:08:27;;;;;;;0.10;0.10;;;9.30;80.60;;;;;;4996908;28;20037;-77
2023/11/28 17:10:53;;;;;;;0.10;0.10;;;9.30;80.80;;;;;;4997110;28;20031;-76
2023/11/28 17:13:19;;;;;;;0.10;0.10;;;9.30;81.30;;;;;;4979110;28;20054;-78
2023/11/28 17:15:44;;;;;;;0.10;0.10;;;9.20;81.20;;;;;;4995894;28;20030;-78
2023/11/28 17:18:10;;;;;;;0.10;0.10;;;9.20;81.50;;;;;;4997117;28;20049;-78
2023/11/28 17:20:36;;;;;;;0.10;0.10;;;9.20;81.80;;;;;;4996781;28;20026;-78
2023/11/28 17:23:01;;;;;;;0.10;0.10;;;9.10;81.50;;;;;;4997222;28;20113;-78
2023/11/28 17:25:27;;;;;;;0.10;0.10;;;9.10;81.10;;;;;;4994662;28;20386;-78
2023/11/28 17:27:52;;;;;;;0.10;0.10;;;9.10;81.30;;;;;;4994381;28;20030;-78
2023/11/28 17:30:19;;;;;;;0.10;0.10;;;9.10;81.60;;;;;;4993961;28;20454;-78
2023/11/28 17:32:45;;;;;;;0.10;0.10;;;9.00;81.60;;;;;;4976152;28;20117;-84
2023/11/28 17:35:10;;;;;;;0.10;0.10;;;9.00;81.70;;;;;;4988623;28;20061;-77
2023/11/28 17:37:36;;;;;;;0.10;0.10;;;8.90;81.90;;;;;;4994700;28;20030;-85
2023/11/28 17:40:06;;;;;;;0.10;0.10;;;8.90;81.70;;;;;;4978277;28;20015;-79
2023/11/28 17:42:33;;;;;;;0.10;0.10;;;8.90;81.40;;;;;;4978160;28;20597;-76
2023/11/28 17:44:58;;;;;;;0.10;0.10;;;8.90;81.60;;;;;;4978608;28;20030;-79
2023/11/28 17:47:33;;;;;;;0.10;0.10;;;8.90;81.70;;;;;;4970215;28;20095;-78
2023/11/28 17:50:00;;;;;;;0.10;0.10;;;8.90;81.60;;;;;;4978076;28;20031;-80
2023/11/28 17:52:26;;;;;;;0.10;0.10;;;8.90;82.10;;;;;;4994458;28;20022;-80
2023/11/28 17:54:52;;;;;;;0.10;0.10;;;8.90;81.70;;;;;;4992805;28;20017;-80
2023/11/28 17:57:18;;;;;;;0.10;0.10;;;8.80;82.10;;;;;;4996669;28;20031;-79
2023/11/28 17:59:44;;;;;;;0.10;0.10;;;8.90;82.10;;;;;;4997869;28;20022;-79
2023/11/28 18:02:12;;;;;;;0.10;0.10;;;8.90;81.80;;;;;;4991014;28;20033;-79
2023/11/28 18:04:38;;;;;;;0.10;0.10;;;8.90;81.80;;;;;;4995382;28;20390;-79
2023/11/28 18:07:07;;;;;;;0.10;0.10;;;8.90;81.90;;;;;;4996361;28;20027;-80
2023/11/28 18:09:34;;;;;;;0.17;0.17;;;8.80;82.20;;;;;;4998802;28;20026;-79
2023/11/28 18:12:01;;;;;;;0.10;0.10;;;8.80;82.30;;;;;;4997005;28;20026;-79
2023/11/28 18:14:28;;;;;;;0.10;0.10;;;8.80;82.30;;;;;;4990105;28;20122;-80
2023/11/28 18:16:54;;;;;;;0.00;0.00;;;8.80;82.40;;;;;;4994939;28;20030;-79
2023/11/28 18:19:20;;;;;;;0.10;0.10;;;8.70;82.40;;;;;;4995687;28;20026;-79
2023/11/28 18:21:46;;;;;;;0.10;0.10;;;8.70;82.50;;;;;;4997337;28;20398;-79